1
11
3
4 106834 303373_3e4cee13b3_z.jpg
4 10802802545_a9b4132ffc_z.jpg
4 10802961384_71fee4c235_z.jpg

KOUN 290543Z 2906/3006 VRB04KT P6SM SCT070 SCT200

FM291200 09004KT P6SM SCT050 BKN150
KOUN 290715Z AUTO 14003KT 10SM CLR 23/20 A3009 RMK AO2

News

Summer Camp  2017 Summer camp schedules will be posted by November 1st.  Registration will open on March 1st.  Visit the summer camp page.  Learn more about summer camp and scholarships in our FAQ

Field Trips and School Programs  Want to engage your class with enriching STEM activities?  Fill out the School Activity Survey on our Teacher page today.  Log-in and make sure you have Teacher access by updating your info in the menu on the left.

Are you interested in learning how to decode the Terminal Area Forecast (TAF) located in the upper right corner of this News section?  Click here to link to the Aviation Weather Center explanation.

If you have attended any of our events, we would love to hear your feedback.  Click here for the form.  We would also love any recommendations you wanted to leave on Facebook.